This is the latest recevied weather packets stored in our database for station/object KD9CCP. If no packets are shown the sender has not sent any weather packets the latest 10 day(s).
| Time | Temp. | Humidity | Pressure | Rain* | Wind** | Luminosity | Snow |
|---|---|---|---|---|---|---|---|
| 1778173409 | 4.44° C | 73% | 1012.8 hPa | 0 mm | - | 22 W/m² | - |
| 1778173105 | 5.56° C | 64% | 1012.7 hPa | 0 mm | - | 19 W/m² | - |
| 1778172801 | 5.56° C | 61% | 1012.5 hPa | 0 mm | - | 26 W/m² | - |
| 1778172497 | 6.11° C | 58% | 1012.5 hPa | 0 mm | - | 42 W/m² | - |
| 1778172195 | 6.67° C | 58% | 1012.6 hPa | 0 mm | - | 127 W/m² | - |
| 1778171892 | 6.11° C | 62% | 1012.5 hPa | 0 mm | - | 204 W/m² | - |
| 1778171589 | 4.44° C | 67% | 1012.6 hPa | 0 mm | - | 187 W/m² | - |
| 1778171285 | 3.89° C | 72% | 1012.8 hPa | 0 mm | - | 144 W/m² | - |
| 1778170981 | 3.89° C | 74% | 1013.1 hPa | 0 mm | - | 70 W/m² | - |
| 1778170678 | 4.44° C | 70% | 1013.4 hPa | 0 mm | - | 36 W/m² | - |
| 1778170375 | 4.44° C | 65% | 1013.1 hPa | 0 mm | - | 23 W/m² | - |
| 1778170071 | 5° C | 65% | 1012.8 hPa | 0 mm | - | 19 W/m² | - |
| 1778169767 | 5° C | 61% | 1012.8 hPa | 0 mm | - | 29 W/m² | - |
| 1778169463 | 5° C | 61% | 1012.7 hPa | 0 mm | - | 84 W/m² | - |
| 1778169159 | 5° C | 62% | 1013 hPa | 0 mm | - | 111 W/m² | - |
| 1778168856 | 5° C | 63% | 1013 hPa | 0 mm | - | 495 W/m² | - |
| 1778168554 | 5° C | 63% | 1013.1 hPa | 0 mm | - | 194 W/m² | - |
| 1778168250 | 4.44° C | 65% | 1012.8 hPa | 0 mm | - | 440 W/m² | - |
| 1778167947 | 3.89° C | 68% | 1013.1 hPa | 0 mm | - | 418 W/m² | - |
| 1778167643 | 3.89° C | 70% | 1013.2 hPa | 0 mm | - | 110 W/m² | - |
| 1778167339 | 3.89° C | 70% | 1013.3 hPa | 0 mm | - | 90 W/m² | - |
| 1778167035 | 3.89° C | 68% | 1013.6 hPa | 0 mm | - | 49 W/m² | - |
| 1778166732 | 3.89° C | 72% | 1013.2 hPa | 0 mm | - | 45 W/m² | - |
| 1778166429 | 3.89° C | 71% | 1013.4 hPa | 0 mm | - | 39 W/m² | - |
| 1778166126 | 3.89° C | 71% | 1013.4 hPa | 0 mm | - | 34 W/m² | - |
* Rain latest hour (hover to see other rain measurements)
** Current wind speed in m/s (hover to see current wind gust speed)